createdAt,value
2019-04-11T00:00:41.670Z,101628.31
2019-04-11T00:03:11.351Z,101630.88
2019-04-11T00:05:41.174Z,101627.50
2019-04-11T00:08:10.145Z,101621.08
2019-04-11T00:10:39.577Z,101627.45
2019-04-11T00:13:17.304Z,101625.36
2019-04-11T00:15:38.921Z,101631.34
2019-04-11T00:18:08.274Z,101628.27
2019-04-11T00:20:37.022Z,101633.05
2019-04-11T00:23:06.095Z,101632.59
2019-04-11T00:25:35.808Z,101636.87
2019-04-11T00:28:05.629Z,101639.82
2019-04-11T00:30:34.515Z,101637.67
2019-04-11T00:33:03.013Z,101635.50
2019-04-11T00:35:31.591Z,101636.31
2019-04-11T00:38:01.314Z,101639.30
2019-04-11T00:40:30.066Z,101637.13
2019-04-11T00:42:58.979Z,101638.45
2019-04-11T00:45:27.680Z,101641.39
2019-04-11T00:47:57.456Z,101639.60
2019-04-11T00:50:27.388Z,101637.03
2019-04-11T00:52:56.487Z,101636.98
2019-04-11T00:55:25.203Z,101634.41
2019-04-11T00:57:54.858Z,101636.94
2019-04-11T01:00:24.103Z,101637.75
2019-04-11T01:02:53.630Z,101634.70
2019-04-11T01:05:23.471Z,101638.88
2019-04-11T01:07:53.197Z,101641.81
2019-04-11T01:10:22.354Z,101642.55
2019-04-11T01:12:51.292Z,101645.08
2019-04-11T01:15:21.673Z,101643.03
2019-04-11T01:17:50.240Z,101649.45
2019-04-11T01:20:19.530Z,101645.51
2019-04-11T01:22:48.719Z,101642.89
2019-04-11T01:25:17.574Z,101646.36
2019-04-11T01:27:50.029Z,101648.18
2019-04-11T01:30:20.754Z,101648.23
2019-04-11T01:32:49.380Z,101650.09
2019-04-11T01:35:17.983Z,101654.73
2019-04-11T01:37:48.211Z,101651.27
2019-04-11T01:40:19.734Z,101653.89
2019-04-11T01:42:49.236Z,101647.00
2019-04-11T01:45:19.719Z,101656.77
2019-04-11T01:47:55.763Z,101654.58
2019-04-11T01:50:27.105Z,101661.42
2019-04-11T01:52:55.907Z,101660.57
2019-04-11T01:55:24.834Z,101666.50
2019-04-11T01:57:54.064Z,101665.16
2019-04-11T02:00:24.525Z,101664.26
2019-04-11T02:02:57.653Z,101660.09
2019-04-11T02:05:27.892Z,101666.50
2019-04-11T02:07:56.603Z,101669.85
2019-04-11T02:10:26.562Z,101664.73
2019-04-11T02:12:55.356Z,101672.86
2019-04-11T02:15:25.363Z,101673.27
2019-04-11T02:17:54.986Z,101667.67
2019-04-11T02:20:25.004Z,101670.23
2019-04-11T02:22:55.248Z,101673.59
2019-04-11T02:25:42.842Z,101669.81
2019-04-11T02:28:13.151Z,101673.96
2019-04-11T02:30:45.731Z,101675.61
2019-04-11T02:33:15.819Z,101680.30
2019-04-11T02:35:48.881Z,101678.53
2019-04-11T02:38:21.389Z,101684.83
2019-04-11T02:40:50.232Z,101689.52
2019-04-11T02:43:20.432Z,101691.10
2019-04-11T02:45:58.783Z,101693.59
2019-04-11T02:48:20.648Z,101693.97
2019-04-11T02:50:50.875Z,101695.64
2019-04-11T02:53:21.243Z,101697.29
2019-04-11T02:55:52.090Z,101697.86
2019-04-11T02:58:22.863Z,101699.48
2019-04-11T03:00:53.713Z,101703.22
2019-04-11T03:03:23.269Z,101703.12
2019-04-11T03:05:53.284Z,101706.89
2019-04-11T03:08:24.042Z,101701.27
2019-04-11T03:10:53.580Z,101702.48
2019-04-11T03:13:23.327Z,101701.56
2019-04-11T03:16:07.322Z,101699.34
2019-04-11T03:18:40.334Z,101704.06
2019-04-11T03:20:57.703Z,101714.23
2019-04-11T03:23:25.198Z,101712.95
2019-04-11T03:25:56.512Z,101712.93
2019-04-11T03:28:28.334Z,101716.20
2019-04-11T03:31:26.653Z,101716.25
2019-04-11T03:34:16.441Z,101713.22
2019-04-11T03:36:50.256Z,101720.83
2019-04-11T03:38:46.790Z,101716.19
2019-04-11T03:41:16.116Z,101717.48
2019-04-11T03:43:40.917Z,101719.67
2019-04-11T03:46:22.917Z,101716.36
2019-04-11T03:48:43.708Z,101717.61
2019-04-11T03:51:01.841Z,101719.42
2019-04-11T03:53:32.547Z,101719.92
2019-04-11T03:56:03.718Z,101716.84
2019-04-11T03:58:33.173Z,101719.34
2019-04-11T04:01:05.553Z,101717.55
2019-04-11T04:03:34.242Z,101720.97
2019-04-11T04:06:04.489Z,101728.24
2019-04-11T04:08:34.230Z,101726.85
2019-04-11T04:11:12.400Z,101728.42
2019-04-11T04:13:53.786Z,101738.56
2019-04-11T04:16:45.264Z,101738.97
2019-04-11T04:19:28.569Z,101744.61
2019-04-11T04:21:59.427Z,101743.53
2019-04-11T04:24:34.199Z,101752.55
2019-04-11T04:27:01.910Z,101752.28
2019-04-11T04:29:32.446Z,101750.09
2019-04-11T04:32:02.854Z,101753.55
2019-04-11T04:34:31.805Z,101757.08
2019-04-11T04:37:03.563Z,101762.00
2019-04-11T04:39:34.311Z,101763.97
2019-04-11T04:42:10.615Z,101766.18
2019-04-11T04:44:33.529Z,101768.73
2019-04-11T04:47:15.325Z,101776.09
2019-04-11T04:49:34.301Z,101784.22
2019-04-11T04:52:04.007Z,101780.97
2019-04-11T04:54:34.741Z,101783.18
2019-04-11T04:57:04.972Z,101780.75
2019-04-11T04:59:34.124Z,101782.76
2019-04-11T05:02:04.026Z,101784.88
2019-04-11T05:04:33.744Z,101790.70
2019-04-11T05:07:03.211Z,101790.69
2019-04-11T05:09:32.138Z,101789.47
2019-04-11T05:12:01.401Z,101793.00
2019-04-11T05:14:31.683Z,101788.37
2019-04-11T05:17:00.666Z,101793.13
2019-04-11T05:19:29.996Z,101791.41
2019-04-11T05:21:59.779Z,101799.48
2019-04-11T05:24:28.429Z,101803.83
2019-04-11T05:26:57.861Z,101799.69
2019-04-11T05:29:27.167Z,101808.67
2019-04-11T05:31:56.721Z,101809.25
2019-04-11T05:34:25.861Z,101814.36
2019-04-11T05:36:55.468Z,101815.31
2019-04-11T05:39:24.096Z,101818.72
2019-04-11T05:41:52.694Z,101817.44
2019-04-11T05:44:21.241Z,101816.25
2019-04-11T05:46:56.249Z,101820.23
2019-04-11T05:49:41.688Z,101824.99
2019-04-11T05:52:10.360Z,101823.87
2019-04-11T05:54:47.459Z,101825.58
2019-04-11T05:57:20.831Z,101825.30
2019-04-11T05:59:51.991Z,101825.31
2019-04-11T06:02:19.109Z,101833.98
2019-04-11T06:04:56.215Z,101836.73
2019-04-11T06:07:41.015Z,101836.40
2019-04-11T06:10:11.382Z,101840.85
2019-04-11T06:12:57.262Z,101840.49
2019-04-11T06:15:27.616Z,101841.78
2019-04-11T06:17:56.611Z,101843.67
2019-04-11T06:20:33.430Z,101849.40
2019-04-11T06:23:21.284Z,101849.95
2019-04-11T06:25:58.782Z,101849.26
2019-04-11T06:28:30.635Z,101855.79
2019-04-11T06:31:13.742Z,101855.05
2019-04-11T06:33:44.895Z,101857.86
2019-04-11T06:36:28.128Z,101864.47
2019-04-11T06:38:58.751Z,101864.16
2019-04-11T06:41:37.495Z,101862.54
2019-04-11T06:44:16.572Z,101862.97
2019-04-11T06:47:05.363Z,101864.80
2019-04-11T06:49:36.303Z,101866.19
2019-04-11T06:52:07.074Z,101865.90
2019-04-11T06:54:56.110Z,101870.25
2019-04-11T06:57:30.017Z,101868.59
2019-04-11T07:00:00.890Z,101869.42
2019-04-11T07:02:32.206Z,101870.34
2019-04-11T07:05:04.962Z,101870.42
2019-04-11T07:07:34.688Z,101870.04
2019-04-11T07:10:06.280Z,101867.10
2019-04-11T07:12:42.831Z,101869.77
2019-04-11T07:15:15.640Z,101871.05
2019-04-11T07:18:04.680Z,101871.55
2019-04-11T07:20:43.606Z,101872.40
2019-04-11T07:23:30.646Z,101873.31
2019-04-11T07:26:13.461Z,101872.44
2019-04-11T07:28:47.910Z,101875.48
2019-04-11T07:31:21.639Z,101877.67
2019-04-11T07:33:52.471Z,101875.11
2019-04-11T07:36:40.494Z,101876.41
2019-04-11T07:39:12.715Z,101881.56
2019-04-11T07:41:45.839Z,101877.69
2019-04-11T07:44:21.815Z,101884.13
2019-04-11T07:46:52.008Z,101880.70
2019-04-11T07:49:26.472Z,101881.53
2019-04-11T07:51:58.154Z,101882.36
2019-04-11T07:54:28.124Z,101878.87
2019-04-11T07:57:17.395Z,101878.87
2019-04-11T08:00:03.779Z,101878.38
2019-04-11T08:02:53.221Z,101874.92
2019-04-11T08:05:41.348Z,101874.95
2019-04-11T08:08:11.674Z,101876.23
2019-04-11T08:10:48.473Z,101874.78
2019-04-11T08:13:22.643Z,101876.93
2019-04-11T08:15:53.752Z,101874.28
2019-04-11T08:18:24.393Z,101874.28
2019-04-11T08:20:57.816Z,101875.56
2019-04-11T08:23:27.701Z,101875.56
2019-04-11T08:25:58.004Z,101874.75
2019-04-11T08:28:26.978Z,101873.06
2019-04-11T08:31:03.489Z,101863.98
2019-04-11T08:33:32.994Z,101863.98
2019-04-11T08:36:09.388Z,101880.91
2019-04-11T08:38:37.990Z,101876.12
2019-04-11T08:41:11.437Z,101866.88
2019-04-11T08:43:40.072Z,101868.56
2019-04-11T08:46:11.330Z,101866.45
2019-04-11T08:48:46.721Z,101863.27
2019-04-11T08:51:19.351Z,101876.58
2019-04-11T08:53:49.532Z,101878.47
2019-04-11T08:56:23.059Z,101880.03
2019-04-11T08:59:33.592Z,101887.23
2019-04-11T09:02:02.786Z,101895.75
2019-04-11T09:04:36.535Z,101883.41
2019-04-11T09:07:05.754Z,101883.41
2019-04-11T09:09:52.127Z,101870.02
2019-04-11T09:12:20.701Z,101870.02
2019-04-11T09:14:54.777Z,101888.84
2019-04-11T09:17:26.171Z,101882.95
2019-04-11T09:19:57.023Z,101875.58
2019-04-11T09:25:43.520Z,101894.11
2019-04-11T09:28:13.864Z,101875.17
2019-04-11T09:30:50.171Z,101880.59
2019-04-11T09:33:42.034Z,101880.59
2019-04-11T09:36:32.305Z,101876.78
2019-04-11T09:39:19.283Z,101876.78
2019-04-11T09:42:13.872Z,101863.27
2019-04-11T09:44:49.915Z,101878.17
2019-04-11T09:47:45.612Z,101873.66
2019-04-11T09:50:18.672Z,101877.11
2019-04-11T09:52:49.570Z,101868.50
2019-04-11T09:55:25.562Z,101878.14
2019-04-11T09:57:59.635Z,101874.80
2019-04-11T10:00:32.614Z,101878.84
2019-04-11T10:03:02.972Z,101873.89
2019-04-11T10:05:36.462Z,101880.31
2019-04-11T10:08:22.456Z,101877.34
2019-04-11T10:11:08.050Z,101885.62
2019-04-11T10:13:45.338Z,101874.19
2019-04-11T10:16:28.400Z,101875.09
2019-04-11T10:19:01.623Z,101881.77
2019-04-11T10:21:33.388Z,101875.63
2019-04-11T10:24:03.573Z,101877.19
2019-04-11T10:26:36.219Z,101881.39
2019-04-11T10:29:23.631Z,101880.85
2019-04-11T10:32:19.145Z,101880.06
2019-04-11T10:37:47.720Z,101877.91
2019-04-11T10:40:20.736Z,101872.41
2019-04-11T10:42:52.072Z,101875.59
2019-04-11T10:48:34.606Z,101877.23
2019-04-11T10:51:12.862Z,101877.16
2019-04-11T10:53:51.233Z,101873.83
2019-04-11T10:56:26.475Z,101873.10
2019-04-11T10:58:57.408Z,101873.61
2019-04-11T11:01:36.419Z,101873.55
2019-04-11T11:04:13.759Z,101877.63
2019-04-11T11:06:46.478Z,101874.20
2019-04-11T11:09:48.329Z,101883.89
2019-04-11T11:12:29.648Z,101886.30
2019-04-11T11:15:00.944Z,101877.09
2019-04-11T11:18:01.480Z,101881.15
2019-04-11T11:20:36.344Z,101883.97
2019-04-11T11:23:06.868Z,101875.62
2019-04-11T11:25:50.037Z,101885.81
2019-04-11T11:28:20.050Z,101889.64
2019-04-11T11:31:07.424Z,101881.88
2019-04-11T11:33:36.828Z,101891.05
2019-04-11T11:38:54.849Z,101895.47
2019-04-11T11:41:41.173Z,101895.30
2019-04-11T11:44:11.689Z,101898.66
2019-04-11T11:52:50.998Z,101895.69
2019-04-11T11:55:21.935Z,101887.45
2019-04-11T11:57:53.114Z,101894.30
2019-04-11T12:00:23.693Z,101899.92
2019-04-11T12:02:56.944Z,101888.81
2019-04-11T12:05:27.326Z,101889.74
2019-04-11T12:08:00.405Z,101885.23
2019-04-11T12:10:49.299Z,101900.13
2019-04-11T12:13:19.646Z,101897.02
2019-04-11T12:15:55.935Z,101897.99
2019-04-11T12:18:26.769Z,101901.21
2019-04-11T12:21:03.327Z,101900.25
2019-04-11T12:23:53.964Z,101905.89
2019-04-11T12:26:14.222Z,101906.59
2019-04-11T12:28:54.282Z,101900.95
2019-04-11T12:31:25.994Z,101900.48
2019-04-11T12:34:12.833Z,101894.50
2019-04-11T12:36:50.849Z,101894.61
2019-04-11T12:39:35.620Z,101897.69
2019-04-11T12:42:11.588Z,101899.33
2019-04-11T12:44:59.316Z,101897.17
2019-04-11T12:47:28.637Z,101904.92
2019-04-11T12:50:04.352Z,101904.78
2019-04-11T12:58:58.447Z,101900.05
2019-04-11T13:01:28.974Z,101899.71
2019-04-11T13:04:07.743Z,101905.06
2019-04-11T13:06:50.086Z,101903.67
2019-04-11T13:09:36.612Z,101894.87
2019-04-11T13:12:09.972Z,101896.68
2019-04-11T13:14:43.153Z,101900.75
2019-04-11T13:17:28.155Z,101897.47
2019-04-11T13:20:17.266Z,101898.88
2019-04-11T13:22:49.053Z,101906.38
2019-04-11T13:25:23.823Z,101907.62
2019-04-11T13:27:57.436Z,101908.14
2019-04-11T13:33:16.270Z,101907.00
2019-04-11T13:38:38.761Z,101911.05
2019-04-11T13:41:21.288Z,101914.32
2019-04-11T13:43:51.637Z,101909.72
2019-04-11T13:46:28.026Z,101906.16
2019-04-11T13:49:07.601Z,101914.27
2019-04-11T13:51:54.467Z,101913.37
2019-04-11T13:54:59.508Z,101905.91
2019-04-11T14:00:44.805Z,101898.52
2019-04-11T14:03:27.035Z,101893.80
2019-04-11T14:06:01.190Z,101901.44
2019-04-11T14:11:34.428Z,101892.47
2019-04-11T14:14:19.701Z,101896.38
2019-04-11T14:16:53.024Z,101895.15
2019-04-11T14:19:29.208Z,101892.72
2019-04-11T14:21:57.921Z,101889.77
2019-04-11T14:24:41.852Z,101895.89
2019-04-11T14:27:12.651Z,101894.34
2019-04-11T14:29:59.300Z,101889.95
2019-04-11T14:32:29.554Z,101887.76
2019-04-11T14:35:02.756Z,101886.80
2019-04-11T14:37:38.448Z,101885.25
2019-04-11T14:40:44.935Z,101886.59
2019-04-11T14:43:25.344Z,101891.30
2019-04-11T14:45:55.538Z,101894.45
2019-04-11T14:48:25.794Z,101892.55
2019-04-11T14:51:02.086Z,101899.07
2019-04-11T14:53:42.057Z,101892.38
2019-04-11T14:56:14.792Z,101885.72
2019-04-11T14:59:07.572Z,101885.72
2019-04-11T15:01:36.179Z,101889.27
2019-04-11T15:04:13.596Z,101889.65
2019-04-11T15:06:45.285Z,101886.20
2019-04-11T15:09:30.717Z,101889.24
2019-04-11T15:12:00.967Z,101889.24
2019-04-11T15:14:48.514Z,101895.16
2019-04-11T15:17:18.678Z,101887.33
2019-04-11T15:20:05.247Z,101892.22
2019-04-11T15:22:51.691Z,101890.08
2019-04-11T15:25:38.512Z,101884.12
2019-04-11T15:28:12.621Z,101884.12
2019-04-11T15:30:48.547Z,101902.25
2019-04-11T15:33:33.287Z,101899.69
2019-04-11T15:36:03.479Z,101899.69
2019-04-11T15:38:50.120Z,101890.69
2019-04-11T15:41:18.808Z,101900.45
2019-04-11T15:44:05.474Z,101898.70
2019-04-11T15:46:35.739Z,101898.70
2019-04-11T15:49:20.896Z,101903.56
2019-04-11T15:51:44.231Z,101898.88
2019-04-11T15:54:15.507Z,101901.86
2019-04-11T15:56:49.249Z,101900.12
2019-04-11T15:59:36.097Z,101901.94
2019-04-11T16:02:22.642Z,101901.94
2019-04-11T16:04:52.888Z,101905.29
2019-04-11T16:07:39.015Z,101902.78
2019-04-11T16:10:11.697Z,101902.78
2019-04-11T16:12:41.461Z,101901.52
2019-04-11T16:15:19.497Z,101905.41
2019-04-11T16:17:57.879Z,101905.41
2019-04-11T16:20:26.256Z,101893.85
2019-04-11T16:23:02.552Z,101903.72
2019-04-11T16:25:31.277Z,101901.16
2019-04-11T16:28:01.535Z,101909.78
2019-04-11T16:30:31.885Z,101909.78
2019-04-11T16:33:08.098Z,101911.53
2019-04-11T16:35:44.910Z,101911.53
2019-04-11T16:38:23.874Z,101911.53
2019-04-11T16:41:09.413Z,101911.53
2019-04-11T16:43:39.633Z,101901.28
2019-04-11T16:46:09.883Z,101901.28
2019-04-11T16:48:38.436Z,101912.06
2019-04-11T16:51:07.008Z,101912.06
2019-04-11T16:53:35.570Z,101916.80
2019-04-11T16:56:04.346Z,101922.40
2019-04-11T16:58:33.334Z,101905.19
2019-04-11T17:01:01.945Z,101905.19
2019-04-11T17:03:30.555Z,101935.75
2019-04-11T17:06:00.799Z,101935.75
2019-04-11T17:08:31.472Z,101929.75
2019-04-11T17:11:04.591Z,101923.29
2019-04-11T17:13:33.301Z,101917.71
2019-04-11T17:16:03.132Z,101928.04
2019-04-11T17:18:33.986Z,101928.04
2019-04-11T17:21:02.007Z,101928.04
2019-04-11T17:23:30.615Z,101922.02
2019-04-11T17:25:59.224Z,101928.47
2019-04-11T17:28:27.848Z,101928.87
2019-04-11T17:30:56.459Z,101940.92
2019-04-11T17:33:27.720Z,101940.92
2019-04-11T17:35:55.517Z,101931.06
2019-04-11T17:38:24.129Z,101943.08
2019-04-11T17:40:52.667Z,101949.97
2019-04-11T17:43:21.273Z,101952.53
2019-04-11T17:45:49.857Z,101949.08
2019-04-11T17:48:18.393Z,101957.72
2019-04-11T17:50:47.020Z,101958.98
2019-04-11T17:53:15.951Z,101958.98
2019-04-11T17:55:44.662Z,101967.16
2019-04-11T17:58:13.209Z,101970.19
2019-04-11T18:00:45.134Z,101970.17
2019-04-11T18:03:14.796Z,101971.45
2019-04-11T18:05:46.629Z,101976.63
2019-04-11T18:08:14.885Z,101979.20
2019-04-11T18:10:43.813Z,101980.05
2019-04-11T18:13:12.367Z,101980.05
2019-04-11T18:15:40.934Z,101981.78
2019-04-11T18:18:09.487Z,101979.19
2019-04-11T18:20:38.063Z,101986.06
2019-04-11T18:23:06.622Z,101986.06
2019-04-11T18:25:35.365Z,101992.09
2019-04-11T18:28:04.431Z,102001.12
2019-04-11T18:30:33.007Z,101998.52
2019-04-11T18:33:01.941Z,102001.97
2019-04-11T18:35:31.927Z,102005.87
2019-04-11T18:38:02.541Z,102007.55
2019-04-11T18:40:31.601Z,102009.30
2019-04-11T18:43:00.153Z,102006.72
2019-04-11T18:45:28.785Z,102018.30
2019-04-11T18:47:57.510Z,102018.31
2019-04-11T18:50:28.681Z,102012.30
2019-04-11T18:52:59.198Z,102014.89
2019-04-11T18:55:27.236Z,102012.28
2019-04-11T18:57:55.964Z,102026.06
2019-04-11T19:00:25.675Z,102029.02
2019-04-11T19:02:54.288Z,102027.30
2019-04-11T19:05:28.711Z,102021.74
2019-04-11T19:07:53.269Z,102034.14
2019-04-11T19:10:21.922Z,102028.16
2019-04-11T19:12:50.535Z,102029.45
2019-04-11T19:15:19.171Z,102023.85
2019-04-11T19:17:47.721Z,102025.16
2019-04-11T19:20:18.709Z,102030.73
2019-04-11T19:22:48.257Z,102029.87
2019-04-11T19:25:19.612Z,102031.15
2019-04-11T19:27:53.312Z,102026.00
2019-04-11T19:30:18.434Z,102032.03
2019-04-11T19:32:47.396Z,102030.23
2019-04-11T19:35:18.744Z,102031.55
2019-04-11T19:37:47.324Z,102034.08
2019-04-11T19:40:17.009Z,102034.96
2019-04-11T19:42:49.246Z,102034.11
2019-04-11T19:45:19.457Z,102034.04
2019-04-11T19:47:51.583Z,102031.91
2019-04-11T19:50:18.639Z,102031.47
2019-04-11T19:52:47.219Z,102031.47
2019-04-11T19:55:35.288Z,102031.89
2019-04-11T19:58:03.865Z,102028.05
2019-04-11T20:00:32.415Z,102030.17
2019-04-11T20:03:00.979Z,102028.42
2019-04-11T20:05:29.853Z,102024.11
2019-04-11T20:07:58.891Z,102030.59
2019-04-11T20:10:30.598Z,102032.70
2019-04-11T20:12:59.111Z,102033.59
2019-04-11T20:15:36.696Z,102035.28
2019-04-11T20:17:58.308Z,102040.39
2019-04-11T20:20:27.223Z,102040.39
2019-04-11T20:22:59.226Z,102036.50
2019-04-11T20:25:26.534Z,102040.41
2019-04-11T20:27:57.418Z,102034.86
2019-04-11T20:30:26.196Z,102038.72
2019-04-11T20:32:54.826Z,102042.98
2019-04-11T20:35:28.773Z,102042.11
2019-04-11T20:37:54.420Z,102039.07
2019-04-11T20:40:23.082Z,102043.37
2019-04-11T20:42:54.120Z,102038.16
2019-04-11T20:45:22.806Z,102045.89
2019-04-11T20:47:51.378Z,102047.61
2019-04-11T20:50:19.929Z,102040.70
2019-04-11T20:52:48.501Z,102036.41
2019-04-11T20:55:17.059Z,102036.01
2019-04-11T20:57:45.627Z,102040.24
2019-04-11T21:00:16.547Z,102042.88
2019-04-11T21:02:45.118Z,102038.16
2019-04-11T21:05:14.786Z,102040.30
2019-04-11T21:07:43.336Z,102040.27
2019-04-11T21:10:12.007Z,102045.45
2019-04-11T21:12:40.577Z,102042.82
2019-04-11T21:15:09.466Z,102039.81
2019-04-11T21:17:38.108Z,102043.25
2019-04-11T21:20:07.495Z,102043.28
2019-04-11T21:22:36.049Z,102036.38
2019-04-11T21:25:06.242Z,102043.64
2019-04-11T21:27:34.888Z,102041.53
2019-04-11T21:30:04.282Z,102040.67
2019-04-11T21:32:32.847Z,102043.25
2019-04-11T21:35:02.452Z,102042.79
2019-04-11T21:37:31.536Z,102037.67
2019-04-11T21:40:00.077Z,102046.69
2019-04-11T21:42:28.989Z,102047.55
2019-04-11T21:44:57.540Z,102053.92
2019-04-11T21:47:26.115Z,102050.02
2019-04-11T21:49:54.665Z,102049.66
2019-04-11T21:52:23.208Z,102050.91
2019-04-11T21:54:51.783Z,102049.23
2019-04-11T21:57:20.335Z,102054.81
2019-04-11T21:59:51.231Z,102043.19
2019-04-11T22:02:24.093Z,102050.91
2019-04-11T22:04:50.382Z,102040.61
2019-04-11T22:07:18.931Z,102048.34
2019-04-11T22:09:47.568Z,102048.80
2019-04-11T22:12:19.204Z,102055.96
2019-04-11T22:14:48.092Z,102052.59
2019-04-11T22:17:16.868Z,102048.59
2019-04-11T22:19:48.517Z,102057.29
2019-04-11T22:22:17.438Z,102050.42
2019-04-11T22:24:46.071Z,102050.05
2019-04-11T22:27:14.625Z,102052.27
2019-04-11T22:29:43.199Z,102053.98
2019-04-11T22:32:11.754Z,102046.72
2019-04-11T22:34:45.066Z,102049.27
2019-04-11T22:37:14.854Z,102048.30
2019-04-11T22:39:43.411Z,102048.80
2019-04-11T22:42:12.098Z,102051.34
2019-04-11T22:44:40.682Z,102047.91
2019-04-11T22:47:09.236Z,102046.22
2019-04-11T22:49:39.347Z,102051.34
2019-04-11T22:52:08.319Z,102050.42
2019-04-11T22:54:37.038Z,102049.48
2019-04-11T22:57:05.650Z,102047.77
2019-04-11T22:59:34.218Z,102052.92
2019-04-11T23:02:04.401Z,102053.39
2019-04-11T23:04:32.977Z,102044.80
2019-04-11T23:07:01.525Z,102047.02
2019-04-11T23:09:30.100Z,102051.24
2019-04-11T23:11:58.652Z,102045.16
2019-04-11T23:14:27.230Z,102047.80
2019-04-11T23:16:56.218Z,102048.23
2019-04-11T23:19:24.788Z,102050.41
2019-04-11T23:21:53.342Z,102046.84
2019-04-11T23:24:21.913Z,102041.72
2019-04-11T23:26:50.463Z,102046.05
2019-04-11T23:29:19.029Z,102041.73
2019-04-11T23:31:50.378Z,102044.27
2019-04-11T23:34:19.770Z,102050.34
2019-04-11T23:36:50.885Z,102045.20
2019-04-11T23:39:18.458Z,102045.16
2019-04-11T23:41:49.670Z,102046.38
2019-04-11T23:44:17.994Z,102044.27
2019-04-11T23:46:51.792Z,102044.69
2019-04-11T23:49:18.074Z,102042.98
2019-04-11T23:51:49.722Z,102041.65
2019-04-11T23:54:23.000Z,102033.50
2019-04-11T23:56:48.897Z,102043.41
2019-04-11T23:59:17.446Z,102037.28
